sensor_id;sensor_type;location;lat;lon;timestamp;P1;durP1;ratioP1;P2;durP2;ratioP2
51495;SDS011;37572;52.094;4.870;2023-09-18T00:00:06;41.67;;;24.63;;
51495;SDS011;37572;52.094;4.870;2023-09-18T00:02:36;38.00;;;23.40;;
51495;SDS011;37572;52.094;4.870;2023-09-18T00:05:01;37.40;;;22.50;;
51495;SDS011;37572;52.094;4.870;2023-09-18T00:07:27;37.28;;;24.60;;
51495;SDS011;37572;52.094;4.870;2023-09-18T00:09:52;39.63;;;25.20;;
51495;SDS011;37572;52.094;4.870;2023-09-18T00:12:17;39.47;;;24.70;;
51495;SDS011;37572;52.094;4.870;2023-09-18T00:14:43;37.97;;;24.85;;
51495;SDS011;37572;52.094;4.870;2023-09-18T00:17:08;37.60;;;25.23;;
51495;SDS011;37572;52.094;4.870;2023-09-18T00:19:33;41.40;;;26.83;;
51495;SDS011;37572;52.094;4.870;2023-09-18T00:21:59;40.25;;;25.73;;
51495;SDS011;37572;52.094;4.870;2023-09-18T00:24:26;41.30;;;26.55;;
51495;SDS011;37572;52.094;4.870;2023-09-18T00:26:51;38.17;;;24.17;;
51495;SDS011;37572;52.094;4.870;2023-09-18T00:29:18;41.60;;;25.48;;
51495;SDS011;37572;52.094;4.870;2023-09-18T00:31:44;41.53;;;25.27;;
51495;SDS011;37572;52.094;4.870;2023-09-18T00:34:10;37.60;;;24.40;;
51495;SDS011;37572;52.094;4.870;2023-09-18T00:36:35;47.13;;;24.93;;
51495;SDS011;37572;52.094;4.870;2023-09-18T00:39:00;39.53;;;25.20;;
51495;SDS011;37572;52.094;4.870;2023-09-18T00:41:26;44.50;;;26.73;;
51495;SDS011;37572;52.094;4.870;2023-09-18T00:43:51;39.97;;;25.60;;
51495;SDS011;37572;52.094;4.870;2023-09-18T00:46:16;41.07;;;26.03;;
51495;SDS011;37572;52.094;4.870;2023-09-18T00:48:42;40.90;;;24.60;;
51495;SDS011;37572;52.094;4.870;2023-09-18T00:51:08;40.37;;;25.43;;
51495;SDS011;37572;52.094;4.870;2023-09-18T00:53:33;42.83;;;27.08;;
51495;SDS011;37572;52.094;4.870;2023-09-18T00:56:00;38.72;;;24.60;;
51495;SDS011;37572;52.094;4.870;2023-09-18T00:58:29;41.83;;;25.45;;
51495;SDS011;37572;52.094;4.870;2023-09-18T01:00:55;40.53;;;25.50;;
51495;SDS011;37572;52.094;4.870;2023-09-18T01:03:21;40.63;;;25.48;;
51495;SDS011;37572;52.094;4.870;2023-09-18T01:05:47;40.17;;;24.63;;
51495;SDS011;37572;52.094;4.870;2023-09-18T01:08:13;39.58;;;24.67;;
51495;SDS011;37572;52.094;4.870;2023-09-18T01:10:56;35.30;;;24.20;;
51495;SDS011;37572;52.094;4.870;2023-09-18T01:13:35;37.97;;;25.50;;
51495;SDS011;37572;52.094;4.870;2023-09-18T01:16:08;40.55;;;26.27;;
51495;SDS011;37572;52.094;4.870;2023-09-18T01:18:48;38.42;;;24.52;;
51495;SDS011;37572;52.094;4.870;2023-09-18T01:21:13;41.35;;;25.98;;
51495;SDS011;37572;52.094;4.870;2023-09-18T01:23:39;40.60;;;25.57;;
51495;SDS011;37572;52.094;4.870;2023-09-18T01:26:05;41.20;;;26.73;;
51495;SDS011;37572;52.094;4.870;2023-09-18T01:28:30;39.20;;;25.45;;
51495;SDS011;37572;52.094;4.870;2023-09-18T01:30:56;39.77;;;25.97;;
51495;SDS011;37572;52.094;4.870;2023-09-18T01:33:21;43.53;;;26.38;;
51495;SDS011;37572;52.094;4.870;2023-09-18T01:35:48;40.88;;;25.83;;
51495;SDS011;37572;52.094;4.870;2023-09-18T01:38:14;41.33;;;26.27;;
51495;SDS011;37572;52.094;4.870;2023-09-18T01:40:39;41.73;;;25.83;;
51495;SDS011;37572;52.094;4.870;2023-09-18T01:43:06;41.08;;;26.00;;
51495;SDS011;37572;52.094;4.870;2023-09-18T01:45:31;40.20;;;25.50;;
51495;SDS011;37572;52.094;4.870;2023-09-18T01:47:57;41.15;;;26.45;;
51495;SDS011;37572;52.094;4.870;2023-09-18T01:50:23;39.95;;;25.77;;
51495;SDS011;37572;52.094;4.870;2023-09-18T01:52:48;40.30;;;25.73;;
51495;SDS011;37572;52.094;4.870;2023-09-18T01:55:13;39.35;;;26.58;;
51495;SDS011;37572;52.094;4.870;2023-09-18T01:57:39;39.37;;;25.07;;
51495;SDS011;37572;52.094;4.870;2023-09-18T02:00:05;41.08;;;26.08;;
51495;SDS011;37572;52.094;4.870;2023-09-18T02:02:35;42.22;;;26.60;;
51495;SDS011;37572;52.094;4.870;2023-09-18T02:05:01;41.58;;;25.65;;
51495;SDS011;37572;52.094;4.870;2023-09-18T02:07:27;44.90;;;27.15;;
51495;SDS011;37572;52.094;4.870;2023-09-18T02:09:52;41.97;;;26.50;;
51495;SDS011;37572;52.094;4.870;2023-09-18T02:12:18;40.40;;;25.25;;
51495;SDS011;37572;52.094;4.870;2023-09-18T02:14:44;37.97;;;26.17;;
51495;SDS011;37572;52.094;4.870;2023-09-18T02:17:10;39.53;;;25.30;;
51495;SDS011;37572;52.094;4.870;2023-09-18T02:19:35;42.43;;;27.13;;
51495;SDS011;37572;52.094;4.870;2023-09-18T02:22:00;35.23;;;23.87;;
51495;SDS011;37572;52.094;4.870;2023-09-18T02:24:27;39.25;;;24.98;;
51495;SDS011;37572;52.094;4.870;2023-09-18T02:26:53;42.70;;;27.27;;
51495;SDS011;37572;52.094;4.870;2023-09-18T02:29:18;36.33;;;23.40;;
51495;SDS011;37572;52.094;4.870;2023-09-18T02:31:43;38.60;;;25.02;;
51495;SDS011;37572;52.094;4.870;2023-09-18T02:34:09;38.33;;;24.63;;
51495;SDS011;37572;52.094;4.870;2023-09-18T02:36:34;40.50;;;25.60;;
51495;SDS011;37572;52.094;4.870;2023-09-18T02:39:00;36.72;;;24.70;;
51495;SDS011;37572;52.094;4.870;2023-09-18T02:41:25;35.95;;;24.40;;
51495;SDS011;37572;52.094;4.870;2023-09-18T02:43:50;36.60;;;23.98;;
51495;SDS011;37572;52.094;4.870;2023-09-18T02:46:16;37.00;;;24.13;;
51495;SDS011;37572;52.094;4.870;2023-09-18T02:48:41;38.63;;;24.53;;
51495;SDS011;37572;52.094;4.870;2023-09-18T02:51:06;38.27;;;24.43;;
51495;SDS011;37572;52.094;4.870;2023-09-18T02:53:33;36.13;;;24.42;;
51495;SDS011;37572;52.094;4.870;2023-09-18T02:55:59;40.37;;;25.20;;
51495;SDS011;37572;52.094;4.870;2023-09-18T02:58:25;38.60;;;25.08;;
51495;SDS011;37572;52.094;4.870;2023-09-18T03:00:51;36.67;;;24.00;;
51495;SDS011;37572;52.094;4.870;2023-09-18T03:03:18;39.35;;;24.67;;
51495;SDS011;37572;52.094;4.870;2023-09-18T03:05:44;39.90;;;26.00;;
51495;SDS011;37572;52.094;4.870;2023-09-18T03:08:10;36.08;;;24.52;;
51495;SDS011;37572;52.094;4.870;2023-09-18T03:10:37;37.88;;;25.23;;
51495;SDS011;37572;52.094;4.870;2023-09-18T03:13:04;39.97;;;24.45;;
51495;SDS011;37572;52.094;4.870;2023-09-18T03:15:30;37.60;;;24.85;;
51495;SDS011;37572;52.094;4.870;2023-09-18T03:17:59;37.95;;;25.13;;
51495;SDS011;37572;52.094;4.870;2023-09-18T03:20:26;42.47;;;26.02;;
51495;SDS011;37572;52.094;4.870;2023-09-18T03:22:53;40.50;;;25.60;;
51495;SDS011;37572;52.094;4.870;2023-09-18T03:25:20;42.10;;;26.63;;
51495;SDS011;37572;52.094;4.870;2023-09-18T03:27:46;41.65;;;26.27;;
51495;SDS011;37572;52.094;4.870;2023-09-18T03:30:11;47.28;;;27.58;;
51495;SDS011;37572;52.094;4.870;2023-09-18T03:32:43;42.95;;;26.27;;
51495;SDS011;37572;52.094;4.870;2023-09-18T03:35:08;43.55;;;27.77;;
51495;SDS011;37572;52.094;4.870;2023-09-18T03:37:42;42.70;;;26.00;;
51495;SDS011;37572;52.094;4.870;2023-09-18T03:40:08;40.83;;;26.20;;
51495;SDS011;37572;52.094;4.870;2023-09-18T03:42:34;42.90;;;28.25;;
51495;SDS011;37572;52.094;4.870;2023-09-18T03:44:59;41.38;;;26.73;;
51495;SDS011;37572;52.094;4.870;2023-09-18T03:47:24;45.83;;;29.00;;
51495;SDS011;37572;52.094;4.870;2023-09-18T03:49:50;43.83;;;28.83;;
51495;SDS011;37572;52.094;4.870;2023-09-18T03:52:15;45.58;;;28.55;;
51495;SDS011;37572;52.094;4.870;2023-09-18T03:54:41;42.25;;;26.15;;
51495;SDS011;37572;52.094;4.870;2023-09-18T03:57:06;42.70;;;26.80;;
51495;SDS011;37572;52.094;4.870;2023-09-18T03:59:31;50.07;;;29.57;;
51495;SDS011;37572;52.094;4.870;2023-09-18T04:01:56;41.03;;;24.80;;
51495;SDS011;37572;52.094;4.870;2023-09-18T04:04:22;43.63;;;26.58;;
51495;SDS011;37572;52.094;4.870;2023-09-18T04:06:47;49.17;;;28.08;;
51495;SDS011;37572;52.094;4.870;2023-09-18T04:09:14;53.90;;;27.77;;
51495;SDS011;37572;52.094;4.870;2023-09-18T04:11:40;42.45;;;25.58;;
51495;SDS011;37572;52.094;4.870;2023-09-18T04:14:05;47.65;;;27.70;;
51495;SDS011;37572;52.094;4.870;2023-09-18T04:16:31;45.83;;;26.98;;
51495;SDS011;37572;52.094;4.870;2023-09-18T04:19:00;48.58;;;25.67;;
51495;SDS011;37572;52.094;4.870;2023-09-18T04:21:25;44.08;;;24.27;;
51495;SDS011;37572;52.094;4.870;2023-09-18T04:23:51;42.25;;;23.30;;
51495;SDS011;37572;52.094;4.870;2023-09-18T04:26:22;39.10;;;22.80;;
51495;SDS011;37572;52.094;4.870;2023-09-18T04:28:47;44.00;;;23.58;;
51495;SDS011;37572;52.094;4.870;2023-09-18T04:31:13;42.08;;;23.92;;
51495;SDS011;37572;52.094;4.870;2023-09-18T04:33:38;43.67;;;23.63;;
51495;SDS011;37572;52.094;4.870;2023-09-18T04:36:04;39.65;;;23.52;;
51495;SDS011;37572;52.094;4.870;2023-09-18T04:38:29;41.65;;;22.88;;
51495;SDS011;37572;52.094;4.870;2023-09-18T04:40:58;37.67;;;21.03;;
51495;SDS011;37572;52.094;4.870;2023-09-18T04:43:24;40.95;;;23.08;;
51495;SDS011;37572;52.094;4.870;2023-09-18T04:45:49;36.53;;;22.52;;
51495;SDS011;37572;52.094;4.870;2023-09-18T04:48:15;37.38;;;22.23;;
51495;SDS011;37572;52.094;4.870;2023-09-18T04:50:41;35.03;;;20.58;;
51495;SDS011;37572;52.094;4.870;2023-09-18T04:53:06;38.57;;;21.13;;
51495;SDS011;37572;52.094;4.870;2023-09-18T04:55:31;38.50;;;23.37;;
51495;SDS011;37572;52.094;4.870;2023-09-18T04:57:57;40.53;;;22.40;;
51495;SDS011;37572;52.094;4.870;2023-09-18T05:00:23;38.00;;;22.80;;
51495;SDS011;37572;52.094;4.870;2023-09-18T05:02:51;42.90;;;22.58;;
51495;SDS011;37572;52.094;4.870;2023-09-18T05:05:17;42.15;;;23.17;;
51495;SDS011;37572;52.094;4.870;2023-09-18T05:07:43;43.05;;;23.02;;
51495;SDS011;37572;52.094;4.870;2023-09-18T05:10:08;35.03;;;20.38;;
51495;SDS011;37572;52.094;4.870;2023-09-18T05:12:34;37.90;;;21.42;;
51495;SDS011;37572;52.094;4.870;2023-09-18T05:14:59;37.27;;;19.67;;
51495;SDS011;37572;52.094;4.870;2023-09-18T05:17:38;33.00;;;19.15;;
51495;SDS011;37572;52.094;4.870;2023-09-18T05:20:22;34.85;;;19.35;;
51495;SDS011;37572;52.094;4.870;2023-09-18T05:22:49;34.20;;;20.42;;
51495;SDS011;37572;52.094;4.870;2023-09-18T05:25:15;28.08;;;16.42;;
51495;SDS011;37572;52.094;4.870;2023-09-18T05:27:41;32.00;;;18.73;;
51495;SDS011;37572;52.094;4.870;2023-09-18T05:30:13;31.90;;;17.70;;
51495;SDS011;37572;52.094;4.870;2023-09-18T05:32:41;31.63;;;18.05;;
51495;SDS011;37572;52.094;4.870;2023-09-18T05:35:08;30.25;;;17.92;;
51495;SDS011;37572;52.094;4.870;2023-09-18T05:37:36;30.98;;;17.52;;
51495;SDS011;37572;52.094;4.870;2023-09-18T05:40:03;30.73;;;17.48;;
51495;SDS011;37572;52.094;4.870;2023-09-18T05:42:34;28.38;;;14.95;;
51495;SDS011;37572;52.094;4.870;2023-09-18T05:45:01;26.73;;;15.52;;
51495;SDS011;37572;52.094;4.870;2023-09-18T05:47:27;23.90;;;13.85;;
51495;SDS011;37572;52.094;4.870;2023-09-18T05:49:54;22.83;;;13.68;;
51495;SDS011;37572;52.094;4.870;2023-09-18T05:52:20;24.73;;;13.90;;
51495;SDS011;37572;52.094;4.870;2023-09-18T05:54:47;24.00;;;13.07;;
51495;SDS011;37572;52.094;4.870;2023-09-18T05:57:12;24.17;;;14.03;;
51495;SDS011;37572;52.094;4.870;2023-09-18T05:59:37;18.90;;;12.03;;
51495;SDS011;37572;52.094;4.870;2023-09-18T06:02:05;21.42;;;12.25;;
51495;SDS011;37572;52.094;4.870;2023-09-18T06:04:30;23.87;;;12.67;;
51495;SDS011;37572;52.094;4.870;2023-09-18T06:06:55;25.77;;;13.00;;
51495;SDS011;37572;52.094;4.870;2023-09-18T06:09:21;23.60;;;13.90;;
51495;SDS011;37572;52.094;4.870;2023-09-18T06:11:47;26.27;;;13.48;;
51495;SDS011;37572;52.094;4.870;2023-09-18T06:14:13;25.20;;;13.18;;
51495;SDS011;37572;52.094;4.870;2023-09-18T06:16:38;27.77;;;14.43;;
51495;SDS011;37572;52.094;4.870;2023-09-18T06:19:04;24.70;;;13.30;;
51495;SDS011;37572;52.094;4.870;2023-09-18T06:21:29;25.23;;;13.77;;
51495;SDS011;37572;52.094;4.870;2023-09-18T06:23:54;30.95;;;14.88;;
51495;SDS011;37572;52.094;4.870;2023-09-18T06:26:20;30.52;;;14.52;;
51495;SDS011;37572;52.094;4.870;2023-09-18T06:28:46;32.13;;;15.63;;
51495;SDS011;37572;52.094;4.870;2023-09-18T06:31:12;29.55;;;15.27;;
51495;SDS011;37572;52.094;4.870;2023-09-18T06:33:37;27.88;;;14.90;;
51495;SDS011;37572;52.094;4.870;2023-09-18T06:36:02;30.43;;;15.53;;
51495;SDS011;37572;52.094;4.870;2023-09-18T06:38:28;30.10;;;16.38;;
51495;SDS011;37572;52.094;4.870;2023-09-18T06:40:53;29.97;;;16.27;;
51495;SDS011;37572;52.094;4.870;2023-09-18T06:43:20;31.38;;;16.98;;
51495;SDS011;37572;52.094;4.870;2023-09-18T06:45:45;27.58;;;15.55;;
51495;SDS011;37572;52.094;4.870;2023-09-18T06:48:10;32.50;;;16.08;;
51495;SDS011;37572;52.094;4.870;2023-09-18T06:50:36;32.83;;;16.73;;
51495;SDS011;37572;52.094;4.870;2023-09-18T06:53:01;28.25;;;15.38;;
51495;SDS011;37572;52.094;4.870;2023-09-18T06:55:27;28.30;;;15.77;;
51495;SDS011;37572;52.094;4.870;2023-09-18T06:57:52;33.55;;;16.63;;
51495;SDS011;37572;52.094;4.870;2023-09-18T07:00:18;29.20;;;15.88;;
51495;SDS011;37572;52.094;4.870;2023-09-18T07:02:45;31.95;;;16.92;;
51495;SDS011;37572;52.094;4.870;2023-09-18T07:05:11;27.90;;;14.98;;
51495;SDS011;37572;52.094;4.870;2023-09-18T07:07:36;26.77;;;14.67;;
51495;SDS011;37572;52.094;4.870;2023-09-18T07:10:02;23.67;;;14.40;;
51495;SDS011;37572;52.094;4.870;2023-09-18T07:12:27;24.70;;;13.48;;
51495;SDS011;37572;52.094;4.870;2023-09-18T07:14:53;25.27;;;12.82;;
51495;SDS011;37572;52.094;4.870;2023-09-18T07:17:18;20.88;;;11.88;;
51495;SDS011;37572;52.094;4.870;2023-09-18T07:19:44;20.30;;;11.07;;
51495;SDS011;37572;52.094;4.870;2023-09-18T07:22:09;17.10;;;10.47;;
51495;SDS011;37572;52.094;4.870;2023-09-18T07:24:34;18.58;;;11.00;;
51495;SDS011;37572;52.094;4.870;2023-09-18T07:26:59;16.20;;;9.87;;
51495;SDS011;37572;52.094;4.870;2023-09-18T07:29:25;16.42;;;10.40;;
51495;SDS011;37572;52.094;4.870;2023-09-18T07:31:51;15.75;;;9.95;;
51495;SDS011;37572;52.094;4.870;2023-09-18T07:34:16;17.95;;;8.75;;
51495;SDS011;37572;52.094;4.870;2023-09-18T07:36:42;17.75;;;8.90;;
51495;SDS011;37572;52.094;4.870;2023-09-18T07:39:08;13.18;;;7.50;;
51495;SDS011;37572;52.094;4.870;2023-09-18T07:41:34;13.48;;;7.30;;
51495;SDS011;37572;52.094;4.870;2023-09-18T07:43:59;10.32;;;6.25;;
51495;SDS011;37572;52.094;4.870;2023-09-18T07:46:25;10.27;;;6.43;;
51495;SDS011;37572;52.094;4.870;2023-09-18T07:48:50;10.82;;;6.40;;
51495;SDS011;37572;52.094;4.870;2023-09-18T07:51:16;10.48;;;6.15;;
51495;SDS011;37572;52.094;4.870;2023-09-18T07:53:41;10.32;;;6.22;;
51495;SDS011;37572;52.094;4.870;2023-09-18T07:56:07;9.93;;;6.53;;
51495;SDS011;37572;52.094;4.870;2023-09-18T07:58:34;11.05;;;7.15;;
51495;SDS011;37572;52.094;4.870;2023-09-18T08:01:04;12.68;;;6.50;;
51495;SDS011;37572;52.094;4.870;2023-09-18T08:03:34;11.15;;;6.50;;
51495;SDS011;37572;52.094;4.870;2023-09-18T08:05:59;9.82;;;6.22;;
51495;SDS011;37572;52.094;4.870;2023-09-18T08:08:25;11.68;;;5.65;;
51495;SDS011;37572;52.094;4.870;2023-09-18T08:10:50;8.80;;;5.75;;
51495;SDS011;37572;52.094;4.870;2023-09-18T08:13:17;9.35;;;5.75;;
51495;SDS011;37572;52.094;4.870;2023-09-18T08:15:43;9.75;;;6.50;;
51495;SDS011;37572;52.094;4.870;2023-09-18T08:18:09;11.45;;;7.35;;
51495;SDS011;37572;52.094;4.870;2023-09-18T08:20:35;10.85;;;7.25;;
51495;SDS011;37572;52.094;4.870;2023-09-18T08:23:02;12.27;;;8.30;;
51495;SDS011;37572;52.094;4.870;2023-09-18T08:25:30;12.77;;;7.47;;
51495;SDS011;37572;52.094;4.870;2023-09-18T08:27:55;12.35;;;8.25;;
51495;SDS011;37572;52.094;4.870;2023-09-18T08:30:21;12.17;;;8.87;;
51495;SDS011;37572;52.094;4.870;2023-09-18T08:32:46;14.75;;;8.98;;
51495;SDS011;37572;52.094;4.870;2023-09-18T08:35:12;10.55;;;7.72;;
51495;SDS011;37572;52.094;4.870;2023-09-18T08:37:39;12.32;;;8.38;;
51495;SDS011;37572;52.094;4.870;2023-09-18T08:40:05;13.40;;;7.80;;
51495;SDS011;37572;52.094;4.870;2023-09-18T08:42:34;12.63;;;8.77;;
51495;SDS011;37572;52.094;4.870;2023-09-18T08:45:01;11.15;;;8.13;;
51495;SDS011;37572;52.094;4.870;2023-09-18T08:47:32;10.93;;;8.20;;
51495;SDS011;37572;52.094;4.870;2023-09-18T08:49:58;11.32;;;8.95;;
51495;SDS011;37572;52.094;4.870;2023-09-18T08:52:24;9.13;;;8.13;;
51495;SDS011;37572;52.094;4.870;2023-09-18T08:54:51;12.52;;;8.75;;
51495;SDS011;37572;52.094;4.870;2023-09-18T08:57:18;11.55;;;8.32;;
51495;SDS011;37572;52.094;4.870;2023-09-18T08:59:44;10.05;;;7.85;;
51495;SDS011;37572;52.094;4.870;2023-09-18T09:02:11;10.23;;;8.15;;
51495;SDS011;37572;52.094;4.870;2023-09-18T09:04:38;10.13;;;8.50;;
51495;SDS011;37572;52.094;4.870;2023-09-18T09:07:04;10.70;;;7.43;;
51495;SDS011;37572;52.094;4.870;2023-09-18T09:09:30;9.18;;;7.45;;
51495;SDS011;37572;52.094;4.870;2023-09-18T09:11:56;9.10;;;6.65;;
51495;SDS011;37572;52.094;4.870;2023-09-18T09:14:21;7.72;;;6.30;;
51495;SDS011;37572;52.094;4.870;2023-09-18T09:16:52;7.15;;;6.43;;
51495;SDS011;37572;52.094;4.870;2023-09-18T09:19:19;7.43;;;6.32;;
51495;SDS011;37572;52.094;4.870;2023-09-18T09:21:54;7.88;;;6.40;;
51495;SDS011;37572;52.094;4.870;2023-09-18T09:24:38;8.10;;;5.78;;
51495;SDS011;37572;52.094;4.870;2023-09-18T09:27:09;9.48;;;6.10;;
51495;SDS011;37572;52.094;4.870;2023-09-18T09:29:35;9.23;;;6.60;;
51495;SDS011;37572;52.094;4.870;2023-09-18T09:32:11;7.18;;;5.90;;
51495;SDS011;37572;52.094;4.870;2023-09-18T09:34:41;8.57;;;6.85;;
51495;SDS011;37572;52.094;4.870;2023-09-18T09:37:07;7.07;;;6.05;;
51495;SDS011;37572;52.094;4.870;2023-09-18T09:39:33;6.80;;;5.82;;
51495;SDS011;37572;52.094;4.870;2023-09-18T09:42:02;9.57;;;6.85;;
51495;SDS011;37572;52.094;4.870;2023-09-18T09:44:31;7.90;;;6.75;;
51495;SDS011;37572;52.094;4.870;2023-09-18T09:46:57;8.57;;;7.13;;
51495;SDS011;37572;52.094;4.870;2023-09-18T09:49:24;8.05;;;7.35;;
51495;SDS011;37572;52.094;4.870;2023-09-18T09:51:52;8.35;;;6.70;;
51495;SDS011;37572;52.094;4.870;2023-09-18T09:54:31;8.65;;;7.30;;
51495;SDS011;37572;52.094;4.870;2023-09-18T09:56:59;7.03;;;6.00;;
51495;SDS011;37572;52.094;4.870;2023-09-18T09:59:27;7.35;;;5.18;;
51495;SDS011;37572;52.094;4.870;2023-09-18T10:01:54;8.07;;;5.53;;
51495;SDS011;37572;52.094;4.870;2023-09-18T10:04:20;7.88;;;5.55;;
51495;SDS011;37572;52.094;4.870;2023-09-18T10:07:06;7.20;;;5.28;;
51495;SDS011;37572;52.094;4.870;2023-09-18T10:09:34;7.57;;;5.53;;
51495;SDS011;37572;52.094;4.870;2023-09-18T10:12:00;6.60;;;5.13;;
51495;SDS011;37572;52.094;4.870;2023-09-18T10:14:29;7.25;;;5.55;;
51495;SDS011;37572;52.094;4.870;2023-09-18T10:17:04;7.72;;;5.57;;
51495;SDS011;37572;52.094;4.870;2023-09-18T10:19:40;6.45;;;5.18;;
51495;SDS011;37572;52.094;4.870;2023-09-18T10:25:20;8.55;;;5.15;;
51495;SDS011;37572;52.094;4.870;2023-09-18T10:27:49;6.97;;;5.60;;
51495;SDS011;37572;52.094;4.870;2023-09-18T10:30:19;6.97;;;5.22;;
51495;SDS011;37572;52.094;4.870;2023-09-18T10:32:47;5.50;;;4.35;;
51495;SDS011;37572;52.094;4.870;2023-09-18T10:35:14;9.20;;;5.05;;
51495;SDS011;37572;52.094;4.870;2023-09-18T10:37:43;6.88;;;5.25;;
51495;SDS011;37572;52.094;4.870;2023-09-18T10:40:11;9.05;;;5.15;;
51495;SDS011;37572;52.094;4.870;2023-09-18T10:42:37;7.28;;;5.32;;
51495;SDS011;37572;52.094;4.870;2023-09-18T10:45:04;7.03;;;5.30;;
51495;SDS011;37572;52.094;4.870;2023-09-18T10:47:31;6.53;;;5.75;;
51495;SDS011;37572;52.094;4.870;2023-09-18T10:49:57;7.53;;;5.53;;
51495;SDS011;37572;52.094;4.870;2023-09-18T10:52:22;8.95;;;6.03;;
51495;SDS011;37572;52.094;4.870;2023-09-18T10:54:48;6.18;;;5.57;;
51495;SDS011;37572;52.094;4.870;2023-09-18T10:57:13;7.13;;;5.90;;
51495;SDS011;37572;52.094;4.870;2023-09-18T10:59:45;7.60;;;5.60;;
51495;SDS011;37572;52.094;4.870;2023-09-18T11:02:14;8.38;;;6.05;;
51495;SDS011;37572;52.094;4.870;2023-09-18T11:04:44;7.65;;;5.85;;
51495;SDS011;37572;52.094;4.870;2023-09-18T11:07:44;7.20;;;5.82;;
51495;SDS011;37572;52.094;4.870;2023-09-18T11:10:24;6.70;;;5.53;;
51495;SDS011;37572;52.094;4.870;2023-09-18T11:12:52;8.02;;;6.13;;
51495;SDS011;37572;52.094;4.870;2023-09-18T11:15:31;8.63;;;5.63;;
51495;SDS011;37572;52.094;4.870;2023-09-18T11:18:01;7.85;;;5.82;;
51495;SDS011;37572;52.094;4.870;2023-09-18T11:20:30;6.60;;;5.78;;
51495;SDS011;37572;52.094;4.870;2023-09-18T11:23:09;7.65;;;5.35;;
51495;SDS011;37572;52.094;4.870;2023-09-18T11:25:42;7.05;;;5.22;;
51495;SDS011;37572;52.094;4.870;2023-09-18T11:28:13;7.40;;;5.70;;
51495;SDS011;37572;52.094;4.870;2023-09-18T11:30:53;8.02;;;6.00;;
51495;SDS011;37572;52.094;4.870;2023-09-18T11:33:37;7.43;;;5.55;;
51495;SDS011;37572;52.094;4.870;2023-09-18T11:36:12;7.55;;;5.93;;
51495;SDS011;37572;52.094;4.870;2023-09-18T11:38:59;7.43;;;5.68;;
51495;SDS011;37572;52.094;4.870;2023-09-18T11:41:29;9.20;;;5.53;;
51495;SDS011;37572;52.094;4.870;2023-09-18T11:46:46;8.95;;;5.63;;
51495;SDS011;37572;52.094;4.870;2023-09-18T11:49:19;7.30;;;4.95;;
51495;SDS011;37572;52.094;4.870;2023-09-18T11:51:46;7.07;;;5.60;;
51495;SDS011;37572;52.094;4.870;2023-09-18T11:54:12;6.82;;;5.00;;
51495;SDS011;37572;52.094;4.870;2023-09-18T11:56:40;6.68;;;5.20;;
51495;SDS011;37572;52.094;4.870;2023-09-18T11:59:05;7.47;;;4.63;;
51495;SDS011;37572;52.094;4.870;2023-09-18T12:01:31;7.70;;;5.03;;
51495;SDS011;37572;52.094;4.870;2023-09-18T12:04:01;8.32;;;4.53;;
51495;SDS011;37572;52.094;4.870;2023-09-18T12:06:27;7.20;;;4.10;;
51495;SDS011;37572;52.094;4.870;2023-09-18T12:08:53;8.48;;;4.05;;
51495;SDS011;37572;52.094;4.870;2023-09-18T12:11:18;6.75;;;3.80;;
51495;SDS011;37572;52.094;4.870;2023-09-18T12:13:45;5.63;;;3.65;;
51495;SDS011;37572;52.094;4.870;2023-09-18T12:16:12;5.28;;;3.42;;
51495;SDS011;37572;52.094;4.870;2023-09-18T12:18:44;6.10;;;3.03;;
51495;SDS011;37572;52.094;4.870;2023-09-18T12:21:10;4.75;;;3.78;;
51495;SDS011;37572;52.094;4.870;2023-09-18T12:23:39;6.43;;;3.28;;
51495;SDS011;37572;52.094;4.870;2023-09-18T12:26:05;5.38;;;3.53;;
51495;SDS011;37572;52.094;4.870;2023-09-18T12:28:35;7.13;;;3.78;;
51495;SDS011;37572;52.094;4.870;2023-09-18T12:31:02;4.82;;;2.58;;
51495;SDS011;37572;52.094;4.870;2023-09-18T12:33:37;4.90;;;2.83;;
51495;SDS011;37572;52.094;4.870;2023-09-18T12:36:04;3.45;;;2.17;;
51495;SDS011;37572;52.094;4.870;2023-09-18T12:38:30;5.15;;;2.42;;
51495;SDS011;37572;52.094;4.870;2023-09-18T12:40:56;5.32;;;2.65;;
51495;SDS011;37572;52.094;4.870;2023-09-18T12:43:40;5.78;;;2.63;;
51495;SDS011;37572;52.094;4.870;2023-09-18T12:46:07;4.50;;;2.33;;
51495;SDS011;37572;52.094;4.870;2023-09-18T12:48:36;7.22;;;3.38;;
51495;SDS011;37572;52.094;4.870;2023-09-18T12:51:03;7.60;;;3.92;;
51495;SDS011;37572;52.094;4.870;2023-09-18T12:53:29;6.97;;;4.18;;
51495;SDS011;37572;52.094;4.870;2023-09-18T12:55:54;5.15;;;3.10;;
51495;SDS011;37572;52.094;4.870;2023-09-18T12:58:30;4.78;;;3.25;;
51495;SDS011;37572;52.094;4.870;2023-09-18T13:00:55;8.30;;;2.92;;
51495;SDS011;37572;52.094;4.870;2023-09-18T13:03:21;5.10;;;3.05;;
51495;SDS011;37572;52.094;4.870;2023-09-18T13:05:47;5.82;;;3.13;;
51495;SDS011;37572;52.094;4.870;2023-09-18T13:08:14;5.35;;;3.08;;
51495;SDS011;37572;52.094;4.870;2023-09-18T13:13:12;5.55;;;3.30;;
51495;SDS011;37572;52.094;4.870;2023-09-18T13:15:41;5.82;;;3.35;;
51495;SDS011;37572;52.094;4.870;2023-09-18T13:18:09;4.95;;;3.30;;
51495;SDS011;37572;52.094;4.870;2023-09-18T13:20:35;5.00;;;3.33;;
51495;SDS011;37572;52.094;4.870;2023-09-18T13:23:01;6.03;;;3.20;;
51495;SDS011;37572;52.094;4.870;2023-09-18T13:28:05;6.25;;;3.22;;
51495;SDS011;37572;52.094;4.870;2023-09-18T13:30:32;5.72;;;3.00;;
51495;SDS011;37572;52.094;4.870;2023-09-18T13:33:04;6.65;;;2.85;;
51495;SDS011;37572;52.094;4.870;2023-09-18T13:35:31;5.72;;;2.75;;
51495;SDS011;37572;52.094;4.870;2023-09-18T13:37:57;5.32;;;2.83;;
51495;SDS011;37572;52.094;4.870;2023-09-18T13:40:23;4.95;;;2.72;;
51495;SDS011;37572;52.094;4.870;2023-09-18T13:42:48;5.93;;;3.20;;
51495;SDS011;37572;52.094;4.870;2023-09-18T13:45:14;6.97;;;3.30;;
51495;SDS011;37572;52.094;4.870;2023-09-18T13:47:41;3.83;;;3.25;;
51495;SDS011;37572;52.094;4.870;2023-09-18T13:50:07;4.80;;;3.70;;
51495;SDS011;37572;52.094;4.870;2023-09-18T13:52:34;5.85;;;3.63;;
51495;SDS011;37572;52.094;4.870;2023-09-18T13:55:01;5.25;;;4.15;;
51495;SDS011;37572;52.094;4.870;2023-09-18T13:57:34;4.80;;;3.70;;
51495;SDS011;37572;52.094;4.870;2023-09-18T14:00:00;5.55;;;4.18;;
51495;SDS011;37572;52.094;4.870;2023-09-18T14:02:30;5.78;;;4.10;;
51495;SDS011;37572;52.094;4.870;2023-09-18T14:04:55;6.07;;;3.92;;
51495;SDS011;37572;52.094;4.870;2023-09-18T14:07:21;5.13;;;4.22;;
51495;SDS011;37572;52.094;4.870;2023-09-18T14:09:47;7.65;;;4.03;;
51495;SDS011;37572;52.094;4.870;2023-09-18T14:12:12;5.70;;;3.67;;
51495;SDS011;37572;52.094;4.870;2023-09-18T14:14:37;5.07;;;3.22;;
51495;SDS011;37572;52.094;4.870;2023-09-18T14:17:05;5.38;;;3.97;;
51495;SDS011;37572;52.094;4.870;2023-09-18T14:19:30;6.65;;;3.35;;
51495;SDS011;37572;52.094;4.870;2023-09-18T14:21:56;4.75;;;3.55;;
51495;SDS011;37572;52.094;4.870;2023-09-18T14:24:21;4.90;;;3.53;;
51495;SDS011;37572;52.094;4.870;2023-09-18T14:26:50;5.78;;;3.55;;
51495;SDS011;37572;52.094;4.870;2023-09-18T14:29:16;6.65;;;3.92;;
51495;SDS011;37572;52.094;4.870;2023-09-18T14:31:42;5.38;;;3.10;;
51495;SDS011;37572;52.094;4.870;2023-09-18T14:34:07;5.72;;;3.35;;
51495;SDS011;37572;52.094;4.870;2023-09-18T14:36:33;5.95;;;3.67;;
51495;SDS011;37572;52.094;4.870;2023-09-18T14:38:59;5.78;;;4.07;;
51495;SDS011;37572;52.094;4.870;2023-09-18T14:41:25;6.22;;;3.92;;
51495;SDS011;37572;52.094;4.870;2023-09-18T14:43:51;5.30;;;4.05;;